Time;durP1;ratioP1;P1;durP2;ratioP2;P2;SDS_P1;SDS_P2;PMS_P1;PMS_P2;Temp;Humidity;BMP_temperature;BMP_pressure;BME280_temperature;BME280_humidity;BME280_pressure;Samples;Min_cycle;Max_cycle;Signal;HPM_P1;HPM_P2
2023/08/15 00:01:01;;;;;;;8.48;5.30;;;24.00;99.90;;;;;;5047657;28;20067;-71
2023/08/15 00:03:27;;;;;;;8.77;5.95;;;23.90;99.90;;;;;;5045203;28;20043;-71
2023/08/15 00:05:53;;;;;;;8.65;5.90;;;23.90;99.90;;;;;;5045746;28;20419;-71
2023/08/15 00:08:19;;;;;;;8.38;6.82;;;24.00;99.90;;;;;;5044098;28;20021;-71
2023/08/15 00:10:44;;;;;;;9.35;5.93;;;24.00;99.90;;;;;;5046398;28;20418;-71
2023/08/15 00:13:10;;;;;;;8.57;5.70;;;23.80;99.90;;;;;;5048145;28;20043;-71
2023/08/15 00:15:36;;;;;;;7.43;6.43;;;23.70;99.90;;;;;;5048025;28;20576;-71
2023/08/15 00:18:01;;;;;;;7.35;5.60;;;23.70;99.90;;;;;;5044500;28;20162;-71
2023/08/15 00:20:27;;;;;;;8.35;5.38;;;23.70;99.90;;;;;;5044290;28;20715;-71
2023/08/15 00:22:53;;;;;;;9.88;5.70;;;23.70;99.90;;;;;;5047527;28;20533;-71
2023/08/15 00:25:19;;;;;;;8.70;6.43;;;23.80;99.90;;;;;;5047796;28;20025;-72
2023/08/15 00:27:44;;;;;;;7.93;5.68;;;23.80;99.90;;;;;;5047197;28;20104;-71
2023/08/15 00:30:10;;;;;;;7.35;5.65;;;23.90;99.90;;;;;;5046486;28;20037;-72
2023/08/15 00:32:36;;;;;;;9.45;6.50;;;23.70;99.90;;;;;;5049586;28;20069;-71
2023/08/15 00:35:05;;;;;;;8.43;5.18;;;23.70;99.90;;;;;;5051378;28;20025;-71
2023/08/15 00:37:34;;;;;;;6.32;5.10;;;23.60;99.90;;;;;;5048700;28;20079;-71
2023/08/15 00:40:01;;;;;;;10.13;5.50;;;23.50;99.90;;;;;;5047520;28;20029;-71
2023/08/15 00:42:26;;;;;;;6.60;5.25;;;23.50;99.90;;;;;;5049732;28;20043;-71
2023/08/15 00:44:52;;;;;;;7.82;6.13;;;23.50;99.90;;;;;;5050710;28;20025;-71
2023/08/15 00:47:19;;;;;;;9.25;6.25;;;23.60;99.90;;;;;;5051212;28;20851;-71
2023/08/15 00:49:45;;;;;;;8.85;5.63;;;23.50;99.90;;;;;;5050516;28;20104;-71
2023/08/15 00:52:14;;;;;;;9.13;5.90;;;23.40;99.90;;;;;;5049788;28;20032;-71
2023/08/15 00:54:45;;;;;;;9.90;6.07;;;23.50;99.90;;;;;;5049469;28;20055;-71
2023/08/15 00:57:11;;;;;;;8.48;5.40;;;23.50;99.90;;;;;;5049696;28;20883;-71
2023/08/15 00:59:37;;;;;;;8.98;6.00;;;23.50;99.90;;;;;;5050469;28;20079;-71
2023/08/15 01:02:03;;;;;;;8.90;5.80;;;23.40;99.90;;;;;;5048689;28;20041;-71
2023/08/15 01:04:31;;;;;;;8.35;5.50;;;23.40;99.90;;;;;;5050745;28;20017;-71
2023/08/15 01:06:58;;;;;;;9.73;6.03;;;23.30;99.90;;;;;;5050626;28;20044;-71
2023/08/15 01:09:23;;;;;;;6.63;4.97;;;23.20;99.90;;;;;;5050891;28;20043;-71
2023/08/15 01:12:01;;;;;;;8.85;5.63;;;23.20;99.90;;;;;;5047263;28;20445;-72
2023/08/15 01:14:36;;;;;;;7.75;5.47;;;23.20;99.90;;;;;;5026373;28;20087;-71
2023/08/15 01:17:03;;;;;;;8.00;6.00;;;23.30;99.90;;;;;;5050842;28;20108;-71
2023/08/15 01:19:38;;;;;;;8.32;5.88;;;23.30;99.90;;;;;;5049113;28;20587;-71
2023/08/15 01:22:10;;;;;;;10.95;5.97;;;23.40;99.90;;;;;;5047666;28;20025;-71
2023/08/15 01:24:36;;;;;;;7.72;5.55;;;23.40;99.90;;;;;;5050083;28;20199;-71
2023/08/15 01:27:03;;;;;;;6.20;5.13;;;23.50;99.90;;;;;;5037252;28;20524;-71
2023/08/15 01:29:28;;;;;;;6.45;5.63;;;23.30;99.90;;;;;;5037869;28;20029;-71
2023/08/15 01:32:20;;;;;;;7.45;5.50;;;23.20;99.90;;;;;;5053033;28;20044;-71
2023/08/15 01:34:52;;;;;;;7.97;5.72;;;23.10;99.90;;;;;;5055271;28;20075;-71
2023/08/15 01:37:29;;;;;;;8.75;5.90;;;23.00;99.90;;;;;;5054826;28;20429;-71
2023/08/15 01:39:57;;;;;;;9.93;6.32;;;23.00;99.90;;;;;;5054372;28;20067;-71
2023/08/15 01:42:24;;;;;;;8.80;5.78;;;23.00;99.90;;;;;;5052724;28;20049;-71
2023/08/15 01:44:52;;;;;;;10.90;5.65;;;22.90;99.90;;;;;;5054816;28;20108;-71
2023/08/15 01:47:20;;;;;;;7.47;5.82;;;22.90;99.90;;;;;;5054547;28;20048;-72
2023/08/15 01:49:46;;;;;;;9.98;6.32;;;22.90;99.90;;;;;;5054532;28;20025;-71
2023/08/15 01:52:11;;;;;;;6.70;5.30;;;22.90;99.90;;;;;;5051615;28;20099;-71
2023/08/15 01:54:37;;;;;;;7.95;5.18;;;22.90;99.90;;;;;;5054588;28;20065;-71
2023/08/15 01:57:03;;;;;;;10.52;5.78;;;22.70;99.90;;;;;;5054653;28;20025;-71
2023/08/15 01:59:28;;;;;;;8.15;5.80;;;22.70;99.90;;;;;;5054457;28;20029;-71
2023/08/15 02:01:54;;;;;;;7.15;5.35;;;22.70;99.90;;;;;;5052770;28;20033;-71
2023/08/15 02:04:20;;;;;;;7.25;5.65;;;22.70;99.90;;;;;;5054215;28;20087;-71
2023/08/15 02:06:45;;;;;;;7.28;6.03;;;22.70;99.90;;;;;;5054036;28;20039;-71
2023/08/15 02:09:11;;;;;;;8.77;6.20;;;22.50;99.90;;;;;;5052949;28;20029;-71
2023/08/15 02:11:36;;;;;;;7.43;6.15;;;22.40;99.90;;;;;;5052441;28;20024;-71
2023/08/15 02:14:02;;;;;;;8.07;5.80;;;22.40;99.90;;;;;;5054083;28;20086;-71
2023/08/15 02:16:28;;;;;;;7.55;5.68;;;22.30;99.90;;;;;;5053947;28;20437;-71
2023/08/15 02:18:54;;;;;;;9.10;6.60;;;22.30;99.90;;;;;;5054115;28;20429;-71
2023/08/15 02:21:20;;;;;;;13.52;6.43;;;22.30;99.90;;;;;;5049425;28;20032;-71
2023/08/15 02:23:46;;;;;;;8.65;5.97;;;22.30;99.90;;;;;;5052904;28;20033;-71
2023/08/15 02:26:11;;;;;;;9.85;6.32;;;22.30;99.90;;;;;;5053923;28;20082;-71
2023/08/15 02:28:37;;;;;;;9.40;6.45;;;22.20;99.90;;;;;;5054050;28;20096;-71
2023/08/15 02:31:05;;;;;;;9.70;6.18;;;22.10;99.90;;;;;;5051940;28;20120;-71
2023/08/15 02:33:34;;;;;;;9.55;6.20;;;22.00;99.90;;;;;;5053551;28;20411;-71
2023/08/15 02:36:07;;;;;;;8.07;5.88;;;21.90;99.90;;;;;;5053915;28;20541;-71
2023/08/15 02:38:33;;;;;;;11.73;7.10;;;21.90;99.90;;;;;;5053788;28;20051;-71
2023/08/15 02:40:59;;;;;;;11.00;6.32;;;21.80;99.90;;;;;;5051586;28;20040;-71
2023/08/15 02:43:25;;;;;;;9.55;6.53;;;21.80;99.90;;;;;;5053477;28;20437;-71
2023/08/15 02:45:51;;;;;;;9.13;6.72;;;21.90;99.90;;;;;;5053490;28;20036;-71
2023/08/15 02:48:16;;;;;;;7.53;6.30;;;22.00;99.90;;;;;;5053515;28;20036;-71
2023/08/15 02:50:42;;;;;;;7.47;6.28;;;22.20;99.90;;;;;;5050821;28;20036;-71
2023/08/15 02:53:08;;;;;;;8.38;5.93;;;22.20;99.90;;;;;;5053285;28;20044;-71
2023/08/15 02:55:34;;;;;;;8.85;6.30;;;22.20;99.90;;;;;;5053461;28;20031;-71
2023/08/15 02:58:00;;;;;;;8.10;6.55;;;22.10;99.90;;;;;;5052332;28;20485;-71
2023/08/15 03:00:25;;;;;;;9.23;6.38;;;22.10;99.90;;;;;;5050840;28;20033;-71
2023/08/15 03:02:52;;;;;;;7.90;6.38;;;22.10;99.90;;;;;;5044735;28;20036;-71
2023/08/15 03:05:18;;;;;;;7.97;6.85;;;22.10;99.90;;;;;;5008868;28;20073;-71
2023/08/15 03:07:44;;;;;;;8.75;6.75;;;22.10;99.90;;;;;;5008398;28;20591;-71
2023/08/15 03:10:10;;;;;;;8.45;6.18;;;22.00;99.90;;;;;;5008311;28;20033;-71
2023/08/15 03:12:35;;;;;;;10.32;6.60;;;22.10;99.90;;;;;;5045308;28;20045;-71
2023/08/15 03:15:01;;;;;;;8.27;6.53;;;22.10;99.90;;;;;;5046568;28;20082;-71
2023/08/15 03:17:27;;;;;;;8.10;6.90;;;22.10;99.90;;;;;;5032545;28;20037;-71
2023/08/15 03:19:54;;;;;;;10.02;7.35;;;22.00;99.90;;;;;;5005708;28;20033;-71
2023/08/15 03:22:20;;;;;;;9.38;7.28;;;22.00;99.90;;;;;;5038714;28;20067;-72
2023/08/15 03:24:46;;;;;;;10.02;7.03;;;21.90;99.90;;;;;;5048496;28;20060;-71
2023/08/15 03:27:11;;;;;;;8.88;6.85;;;21.80;99.90;;;;;;5048475;28;20025;-71
2023/08/15 03:29:37;;;;;;;9.10;7.18;;;21.90;99.90;;;;;;5046890;28;20486;-71
2023/08/15 03:32:03;;;;;;;9.68;7.18;;;21.90;99.90;;;;;;5046475;28;20107;-72
2023/08/15 03:34:29;;;;;;;9.65;6.47;;;21.80;99.90;;;;;;5048064;28;20647;-71
2023/08/15 03:36:55;;;;;;;10.07;7.30;;;21.90;99.90;;;;;;5048427;28;20052;-71
2023/08/15 03:39:21;;;;;;;9.35;7.07;;;21.90;99.90;;;;;;5046867;28;20036;-71
2023/08/15 03:41:47;;;;;;;9.27;6.72;;;21.90;99.90;;;;;;5048109;28;20037;-71
2023/08/15 03:44:12;;;;;;;8.73;7.15;;;21.80;99.90;;;;;;5046369;28;20124;-71
2023/08/15 03:46:40;;;;;;;9.70;7.25;;;21.80;99.90;;;;;;5048394;28;20048;-71
2023/08/15 03:49:06;;;;;;;10.13;7.25;;;21.80;99.90;;;;;;5047265;28;20043;-71
2023/08/15 03:51:32;;;;;;;9.02;6.90;;;21.70;99.90;;;;;;5048353;28;20071;-71
2023/08/15 03:53:58;;;;;;;10.52;7.38;;;21.70;99.90;;;;;;5048466;28;20080;-71
2023/08/15 03:56:23;;;;;;;9.55;7.60;;;21.70;99.90;;;;;;5046293;28;20729;-71
2023/08/15 03:58:49;;;;;;;11.35;7.25;;;21.70;99.90;;;;;;5045885;28;20025;-71
2023/08/15 04:01:14;;;;;;;10.75;6.88;;;21.60;99.90;;;;;;5045272;28;20087;-71
2023/08/15 04:03:40;;;;;;;8.18;7.28;;;21.70;99.90;;;;;;5048294;28;20029;-71
2023/08/15 04:06:06;;;;;;;9.02;7.38;;;21.70;99.90;;;;;;5047535;28;20512;-71
2023/08/15 04:08:31;;;;;;;9.27;7.05;;;21.80;99.90;;;;;;5031772;28;20025;-71
2023/08/15 04:10:57;;;;;;;8.65;7.50;;;21.80;99.90;;;;;;5028770;28;20455;-71
2023/08/15 04:13:23;;;;;;;10.23;7.25;;;21.80;99.90;;;;;;5029095;28;20037;-71
2023/08/15 04:15:48;;;;;;;12.55;7.63;;;21.70;99.90;;;;;;5030979;28;20498;-71
2023/08/15 04:18:14;;;;;;;9.27;7.63;;;21.60;99.90;;;;;;5028924;28;20049;-71
2023/08/15 04:20:42;;;;;;;8.55;7.40;;;21.60;99.90;;;;;;5028622;28;20547;-71
2023/08/15 04:23:08;;;;;;;12.00;8.07;;;21.60;99.90;;;;;;5028784;28;20065;-71
2023/08/15 04:25:36;;;;;;;7.97;7.18;;;21.50;99.90;;;;;;5028046;28;20059;-71
2023/08/15 04:28:02;;;;;;;8.70;7.28;;;21.50;99.90;;;;;;5028021;28;20502;-71
2023/08/15 04:30:31;;;;;;;10.30;7.40;;;21.60;99.90;;;;;;5034410;28;20036;-71
2023/08/15 04:32:58;;;;;;;9.40;7.45;;;21.70;99.90;;;;;;5046640;28;20107;-71
2023/08/15 04:35:24;;;;;;;10.60;7.55;;;21.70;99.90;;;;;;5026246;28;20517;-71
2023/08/15 04:37:50;;;;;;;9.75;8.00;;;21.60;99.90;;;;;;5042280;28;20493;-71
2023/08/15 04:40:29;;;;;;;9.48;7.63;;;21.50;99.90;;;;;;5030681;28;20038;-71
2023/08/15 04:42:54;;;;;;;9.93;7.65;;;21.30;99.90;;;;;;5008567;28;20042;-71
2023/08/15 04:45:20;;;;;;;10.55;8.27;;;21.40;99.90;;;;;;5016256;28;20508;-71
2023/08/15 04:47:45;;;;;;;9.10;7.78;;;21.40;99.90;;;;;;5024080;28;20154;-71
2023/08/15 04:50:11;;;;;;;9.85;7.97;;;21.40;99.90;;;;;;5028440;28;20071;-71
2023/08/15 04:52:37;;;;;;;10.00;7.05;;;21.60;99.90;;;;;;5028185;28;20046;-72
2023/08/15 04:55:03;;;;;;;8.85;7.30;;;21.50;99.90;;;;;;5028246;28;20025;-71
2023/08/15 04:57:28;;;;;;;11.30;7.57;;;21.70;99.90;;;;;;5028262;28;20032;-72
2023/08/15 04:59:54;;;;;;;10.70;7.60;;;21.70;99.90;;;;;;5028023;28;21020;-71
2023/08/15 05:02:20;;;;;;;9.43;7.72;;;21.60;99.90;;;;;;5025496;28;20061;-71
2023/08/15 05:04:45;;;;;;;9.20;6.60;;;21.60;99.90;;;;;;5030975;28;20029;-71
2023/08/15 05:07:11;;;;;;;9.88;7.47;;;21.60;99.90;;;;;;5032580;28;20082;-71
2023/08/15 05:09:37;;;;;;;8.63;7.68;;;21.60;99.90;;;;;;5026585;28;20022;-72
2023/08/15 05:12:03;;;;;;;10.10;7.70;;;21.60;99.90;;;;;;5027357;28;20111;-71
2023/08/15 05:14:29;;;;;;;9.23;7.55;;;21.50;99.90;;;;;;5026822;28;20623;-71
2023/08/15 05:16:55;;;;;;;9.63;7.10;;;21.50;99.90;;;;;;5025027;28;20032;-72
2023/08/15 05:19:20;;;;;;;7.80;6.82;;;21.50;99.90;;;;;;5027565;28;20022;-71
2023/08/15 05:21:46;;;;;;;8.45;7.40;;;21.40;99.90;;;;;;5027620;28;20032;-71
2023/08/15 05:24:11;;;;;;;8.48;7.28;;;21.50;99.90;;;;;;5025426;28;20072;-71
2023/08/15 05:26:37;;;;;;;9.50;8.20;;;21.60;99.90;;;;;;5027790;28;20037;-71
2023/08/15 05:29:03;;;;;;;11.43;8.32;;;21.70;99.90;;;;;;5026263;28;20076;-71
2023/08/15 05:31:29;;;;;;;9.70;7.47;;;21.70;99.90;;;;;;5027199;28;20033;-71
2023/08/15 05:33:54;;;;;;;9.15;7.32;;;21.80;99.90;;;;;;5027152;28;20026;-71
2023/08/15 05:36:20;;;;;;;9.32;7.00;;;21.70;99.90;;;;;;5031692;28;20479;-71
2023/08/15 05:38:46;;;;;;;10.45;8.18;;;21.80;99.90;;;;;;5040658;28;20075;-71
2023/08/15 05:41:11;;;;;;;8.18;6.75;;;21.90;99.90;;;;;;5047299;28;20057;-71
2023/08/15 05:43:37;;;;;;;8.80;7.07;;;21.90;99.90;;;;;;5024536;28;20057;-71
2023/08/15 05:46:03;;;;;;;8.98;7.03;;;21.80;99.90;;;;;;5032652;28;20112;-72
2023/08/15 05:48:30;;;;;;;11.93;7.68;;;21.90;99.90;;;;;;5024744;28;20065;-71
2023/08/15 05:50:56;;;;;;;10.60;7.85;;;21.80;99.90;;;;;;5026539;28;20029;-71
2023/08/15 05:53:21;;;;;;;9.15;7.30;;;22.00;99.90;;;;;;5026114;28;20069;-71
2023/08/15 05:55:47;;;;;;;9.65;7.30;;;21.90;99.90;;;;;;5027552;28;20486;-71
2023/08/15 05:58:12;;;;;;;8.85;7.60;;;22.00;99.90;;;;;;5027345;28;20376;-71
2023/08/15 06:00:38;;;;;;;9.27;7.32;;;22.10;99.90;;;;;;5026919;28;20025;-72
2023/08/15 06:03:05;;;;;;;11.63;7.78;;;22.00;99.90;;;;;;5026664;28;20029;-71
2023/08/15 06:05:31;;;;;;;9.65;7.95;;;22.00;99.90;;;;;;5027060;28;20021;-71
2023/08/15 06:07:57;;;;;;;12.05;7.30;;;22.00;99.90;;;;;;5026748;28;20075;-71
2023/08/15 06:10:23;;;;;;;9.15;6.90;;;22.20;99.90;;;;;;5026755;28;20026;-72
2023/08/15 06:12:48;;;;;;;8.23;7.40;;;22.00;99.90;;;;;;5026831;28;20037;-72
2023/08/15 06:15:14;;;;;;;8.38;7.47;;;22.10;99.90;;;;;;5027134;28;20029;-71
2023/08/15 06:17:41;;;;;;;8.63;7.43;;;22.10;99.90;;;;;;5026791;28;21044;-71
2023/08/15 06:20:08;;;;;;;10.82;7.15;;;22.30;99.90;;;;;;5026651;28;20108;-71
2023/08/15 06:22:33;;;;;;;9.95;8.35;;;22.30;99.90;;;;;;5026701;28;20024;-71
2023/08/15 06:24:59;;;;;;;11.00;7.70;;;22.40;99.90;;;;;;5025970;28;20399;-72
2023/08/15 06:27:25;;;;;;;7.97;7.18;;;22.50;99.90;;;;;;5026884;28;20045;-71
2023/08/15 06:29:50;;;;;;;9.40;7.28;;;22.70;99.90;;;;;;5026641;28;20079;-71
2023/08/15 06:32:27;;;;;;;9.00;7.53;;;23.00;99.90;;;;;;5026756;28;20969;-72
2023/08/15 06:34:52;;;;;;;9.32;6.82;;;23.30;99.90;;;;;;5026637;28;20064;-71
2023/08/15 06:37:18;;;;;;;8.43;6.63;;;23.40;99.90;;;;;;5026442;28;20065;-71
2023/08/15 06:39:44;;;;;;;8.32;6.22;;;23.50;99.90;;;;;;5026370;28;20036;-71
2023/08/15 06:42:10;;;;;;;8.77;6.88;;;23.60;99.90;;;;;;5026192;28;20041;-71
2023/08/15 06:44:36;;;;;;;9.60;6.13;;;23.80;99.90;;;;;;5026572;28;20642;-71
2023/08/15 06:47:02;;;;;;;8.27;7.03;;;23.90;99.90;;;;;;5026054;28;20030;-72
2023/08/15 06:49:28;;;;;;;11.98;6.53;;;24.00;99.90;;;;;;5025870;28;20033;-71
2023/08/15 06:51:53;;;;;;;8.88;6.40;;;24.10;99.90;;;;;;5025940;28;20116;-72
2023/08/15 06:54:19;;;;;;;8.85;5.93;;;24.40;99.90;;;;;;5026329;28;20064;-72
2023/08/15 06:56:45;;;;;;;13.13;5.82;;;24.40;99.90;;;;;;5026591;28;20025;-72
2023/08/15 06:59:10;;;;;;;7.30;5.53;;;24.70;99.90;;;;;;5026371;28;20029;-71
2023/08/15 07:01:36;;;;;;;7.32;6.20;;;24.70;99.90;;;;;;5027273;28;20021;-72
2023/08/15 07:04:02;;;;;;;10.40;5.95;;;25.00;99.90;;;;;;5028983;28;20117;-71
2023/08/15 07:06:27;;;;;;;11.55;6.82;;;25.40;99.90;;;;;;5029144;28;20104;-72
2023/08/15 07:08:54;;;;;;;9.85;7.03;;;26.10;99.90;;;;;;5029027;28;20033;-71
2023/08/15 07:11:19;;;;;;;9.63;6.75;;;27.00;99.90;;;;;;5029022;28;20021;-71
2023/08/15 07:13:45;;;;;;;9.40;6.13;;;27.90;99.90;;;;;;5029087;28;20032;-72
2023/08/15 07:16:11;;;;;;;13.30;5.95;;;28.70;99.10;;;;;;5029037;28;20070;-71
2023/08/15 07:18:36;;;;;;;8.93;6.78;;;29.50;98.00;;;;;;5029192;28;20870;-71
2023/08/15 07:21:03;;;;;;;8.18;5.45;;;30.10;97.20;;;;;;5029211;28;20033;-71
2023/08/15 07:23:30;;;;;;;8.10;5.70;;;30.40;96.20;;;;;;5028825;28;20029;-71
2023/08/15 07:25:56;;;;;;;7.20;5.25;;;30.70;95.60;;;;;;5028955;28;20734;-71
2023/08/15 07:28:22;;;;;;;7.97;5.47;;;30.90;95.80;;;;;;5028966;28;20045;-71
2023/08/15 07:30:48;;;;;;;9.80;5.82;;;30.60;95.60;;;;;;5028356;28;20026;-71
2023/08/15 07:33:15;;;;;;;11.25;4.95;;;30.50;95.30;;;;;;5028477;28;20041;-71
2023/08/15 07:35:41;;;;;;;7.20;5.03;;;30.50;95.20;;;;;;5029169;28;20103;-71
2023/08/15 07:38:07;;;;;;;6.90;5.45;;;30.60;94.60;;;;;;5028742;28;20030;-70
2023/08/15 07:40:33;;;;;;;6.88;5.20;;;30.90;94.90;;;;;;5028118;28;20029;-71
2023/08/15 07:42:58;;;;;;;8.18;5.07;;;30.70;94.50;;;;;;5028408;28;20028;-71
2023/08/15 07:45:24;;;;;;;6.10;4.53;;;31.00;94.30;;;;;;5028160;28;20052;-71
2023/08/15 07:47:54;;;;;;;10.77;5.15;;;30.30;94.80;;;;;;5028102;28;20052;-71
2023/08/15 07:50:22;;;;;;;8.07;5.45;;;28.80;95.90;;;;;;5027150;28;20534;-71
2023/08/15 07:52:49;;;;;;;7.50;5.22;;;27.10;97.50;;;;;;5026052;28;20384;-71
2023/08/15 07:55:16;;;;;;;6.35;5.40;;;26.30;98.40;;;;;;5027230;28;20502;-71
2023/08/15 07:57:43;;;;;;;9.20;5.53;;;25.80;98.90;;;;;;5027737;28;20034;-71
2023/08/15 08:00:10;;;;;;;6.82;4.93;;;25.50;99.30;;;;;;5028416;28;20097;-71
2023/08/15 08:02:36;;;;;;;19.23;6.75;;;25.60;99.90;;;;;;5028329;28;20027;-71
2023/08/15 08:05:06;;;;;;;12.25;6.10;;;25.60;99.90;;;;;;5028242;28;20029;-71
2023/08/15 08:07:35;;;;;;;10.02;5.35;;;25.90;99.80;;;;;;5028857;28;20030;-71
2023/08/15 08:10:01;;;;;;;7.57;5.35;;;25.90;99.30;;;;;;5028295;28;20057;-71
2023/08/15 08:12:30;;;;;;;8.57;5.60;;;25.70;99.40;;;;;;5028433;28;20541;-71
2023/08/15 08:14:56;;;;;;;7.65;5.63;;;25.70;99.50;;;;;;5028097;28;20071;-71
2023/08/15 08:17:22;;;;;;;9.80;5.95;;;25.60;99.90;;;;;;5028258;28;20029;-71
2023/08/15 08:19:48;;;;;;;10.02;6.25;;;25.70;99.90;;;;;;5028203;28;20036;-71
2023/08/15 08:22:13;;;;;;;8.50;5.90;;;25.60;99.40;;;;;;5028352;28;20026;-71
2023/08/15 08:24:39;;;;;;;7.50;5.47;;;25.60;99.90;;;;;;5028104;28;20590;-71
2023/08/15 08:27:05;;;;;;;8.68;5.82;;;25.70;99.70;;;;;;5028259;28;20026;-71
2023/08/15 08:29:31;;;;;;;11.55;5.07;;;25.60;99.90;;;;;;5028074;28;20030;-71
2023/08/15 08:31:56;;;;;;;10.00;4.80;;;26.70;99.50;;;;;;5028181;28;20041;-71
2023/08/15 08:34:22;;;;;;;8.93;5.70;;;28.50;97.20;;;;;;5028320;28;20088;-71
2023/08/15 08:36:48;;;;;;;8.10;5.85;;;29.10;95.60;;;;;;5028370;28;20088;-71
2023/08/15 08:39:13;;;;;;;7.85;4.93;;;29.70;95.60;;;;;;5028208;28;20371;-71
2023/08/15 08:41:40;;;;;;;7.90;5.72;;;30.40;95.70;;;;;;5027439;28;20497;-71
2023/08/15 08:44:06;;;;;;;7.63;5.93;;;29.90;95.50;;;;;;5027324;28;20455;-71
2023/08/15 08:46:32;;;;;;;7.80;5.18;;;30.40;95.70;;;;;;5027675;28;20025;-71
2023/08/15 08:48:58;;;;;;;6.82;5.35;;;30.30;95.90;;;;;;5028821;28;20047;-71
2023/08/15 08:51:25;;;;;;;6.93;5.05;;;30.50;95.50;;;;;;5029906;28;20030;-71
2023/08/15 08:53:51;;;;;;;8.73;6.03;;;30.50;95.20;;;;;;5031160;28;20478;-71
2023/08/15 08:56:18;;;;;;;9.68;5.95;;;30.00;95.80;;;;;;5031362;28;20495;-71
2023/08/15 08:58:51;;;;;;;7.45;6.00;;;29.80;96.10;;;;;;5030899;28;20069;-71
2023/08/15 09:01:18;;;;;;;13.10;5.55;;;29.10;96.10;;;;;;5031357;28;20511;-71
2023/08/15 09:03:43;;;;;;;8.27;5.97;;;28.60;96.30;;;;;;5031510;28;20026;-71
2023/08/15 09:06:10;;;;;;;9.13;5.57;;;28.60;97.00;;;;;;5031335;28;20030;-71
2023/08/15 09:08:36;;;;;;;6.40;5.25;;;28.30;97.10;;;;;;5031097;28;20045;-71
2023/08/15 09:11:01;;;;;;;9.32;5.32;;;28.20;96.70;;;;;;5030734;28;20052;-71
2023/08/15 09:13:27;;;;;;;9.48;6.07;;;28.20;97.00;;;;;;5030731;28;20030;-71
2023/08/15 09:15:58;;;;;;;7.57;5.53;;;27.70;96.90;;;;;;5031073;28;20483;-70
2023/08/15 09:18:25;;;;;;;9.27;5.68;;;27.70;97.40;;;;;;5030846;28;20108;-71
2023/08/15 09:20:52;;;;;;;11.45;5.85;;;27.60;97.40;;;;;;5030773;28;20056;-71
2023/08/15 09:23:17;;;;;;;11.05;5.28;;;27.50;97.40;;;;;;5030920;28;20025;-71
2023/08/15 09:25:43;;;;;;;12.13;6.22;;;27.90;97.10;;;;;;5030337;28;20083;-71
2023/08/15 09:28:09;;;;;;;9.35;4.80;;;28.20;96.80;;;;;;5030692;28;20108;-71
2023/08/15 09:30:35;;;;;;;6.10;5.03;;;28.30;96.90;;;;;;5030919;28;20456;-71
2023/08/15 09:33:02;;;;;;;8.60;5.80;;;28.10;96.80;;;;;;5030553;28;20116;-70
2023/08/15 09:35:30;;;;;;;8.95;6.25;;;28.20;96.70;;;;;;5030503;28;20022;-71
2023/08/15 09:37:56;;;;;;;9.05;5.35;;;28.40;96.80;;;;;;5030405;28;20029;-71
2023/08/15 09:40:23;;;;;;;9.57;5.65;;;28.10;96.70;;;;;;5030228;28;20036;-71
2023/08/15 09:42:49;;;;;;;7.97;5.68;;;28.30;96.90;;;;;;5030535;28;20056;-71
2023/08/15 09:45:16;;;;;;;9.10;5.90;;;27.90;97.10;;;;;;5030329;28;20025;-71
2023/08/15 09:47:42;;;;;;;9.25;5.32;;;28.40;97.20;;;;;;5030437;28;20105;-71
2023/08/15 09:50:10;;;;;;;8.57;6.10;;;28.60;97.30;;;;;;5030097;28;20033;-71
2023/08/15 09:52:48;;;;;;;6.10;4.88;;;28.80;97.60;;;;;;5030417;28;20073;-71
2023/08/15 09:55:15;;;;;;;11.80;5.88;;;29.10;96.50;;;;;;5030428;28;20028;-71
2023/08/15 09:57:42;;;;;;;7.55;5.30;;;29.00;96.50;;;;;;5030101;28;20025;-71
2023/08/15 10:00:16;;;;;;;7.35;5.50;;;29.00;97.40;;;;;;5029747;28;20395;-71
2023/08/15 10:02:44;;;;;;;;;;;29.10;96.60;;;;;;5030202;28;20025;-71
2023/08/15 10:05:11;;;;;;;10.30;5.45;;;29.10;97.20;;;;;;5029992;28;20544;-71
2023/08/15 10:07:38;;;;;;;9.35;5.43;;;29.10;96.30;;;;;;5029824;28;20525;-72
2023/08/15 10:10:05;;;;;;;14.18;5.57;;;29.00;96.30;;;;;;5029510;28;20104;-71
2023/08/15 10:12:33;;;;;;;6.47;5.20;;;29.30;97.00;;;;;;5029592;28;20038;-71
2023/08/15 10:14:59;;;;;;;10.27;5.53;;;29.50;96.20;;;;;;5029765;28;20108;-71
2023/08/15 10:17:26;;;;;;;8.63;5.35;;;29.30;96.90;;;;;;5029915;28;20037;-71
2023/08/15 10:19:54;;;;;;;7.38;5.80;;;29.70;96.40;;;;;;5029508;28;20178;-71
2023/08/15 10:22:19;;;;;;;9.48;5.35;;;29.70;96.10;;;;;;5030068;28;20050;-71
2023/08/15 10:24:46;;;;;;;8.27;5.22;;;29.70;96.20;;;;;;5029550;28;20432;-71
2023/08/15 10:27:13;;;;;;;8.55;5.50;;;29.60;96.00;;;;;;5030279;28;20079;-71
2023/08/15 10:29:52;;;;;;;9.80;5.07;;;29.70;96.00;;;;;;5027349;28;20116;-71
2023/08/15 10:32:25;;;;;;;6.82;5.57;;;30.00;96.90;;;;;;5023756;28;20095;-71
2023/08/15 10:35:01;;;;;;;6.82;5.53;;;30.00;96.00;;;;;;5029091;28;20017;-71
2023/08/15 10:37:32;;;;;;;8.88;5.25;;;30.20;95.90;;;;;;5029404;28;20061;-71
2023/08/15 10:40:10;;;;;;;6.63;4.95;;;30.30;95.80;;;;;;5028920;28;20080;-71
2023/08/15 10:42:57;;;;;;;8.70;5.63;;;30.00;95.90;;;;;;5028931;28;20517;-71
2023/08/15 10:45:23;;;;;;;7.93;4.97;;;30.00;96.10;;;;;;5029448;28;20025;-71
2023/08/15 10:47:49;;;;;;;6.68;5.40;;;30.50;95.80;;;;;;5029330;28;20144;-71
2023/08/15 10:50:16;;;;;;;8.23;5.43;;;30.50;96.00;;;;;;5029207;28;20529;-71
2023/08/15 10:52:42;;;;;;;7.07;5.32;;;30.70;96.30;;;;;;5028954;28;20061;-71
2023/08/15 10:55:08;;;;;;;7.82;4.80;;;31.00;95.90;;;;;;5029152;28;20111;-71
2023/08/15 10:57:35;;;;;;;10.48;5.63;;;31.10;95.90;;;;;;5028923;28;20486;-71
2023/08/15 11:00:01;;;;;;;9.82;5.18;;;31.00;95.90;;;;;;5029049;28;20043;-71
2023/08/15 11:02:26;;;;;;;7.15;5.18;;;31.00;96.20;;;;;;5028220;28;20021;-70
2023/08/15 11:04:53;;;;;;;10.38;5.10;;;31.20;96.30;;;;;;5028315;28;20055;-70
2023/08/15 11:07:25;;;;;;;9.02;5.07;;;31.10;96.20;;;;;;5028153;28;20035;-70
2023/08/15 11:09:51;;;;;;;10.27;5.38;;;31.00;96.10;;;;;;5027706;28;20057;-70
2023/08/15 11:12:17;;;;;;;5.78;4.35;;;31.00;96.10;;;;;;5027721;28;20142;-70
2023/08/15 11:14:42;;;;;;;8.40;4.85;;;31.20;95.90;;;;;;5027921;28;20032;-70
2023/08/15 11:17:11;;;;;;;9.43;4.85;;;31.00;95.80;;;;;;5027364;28;20039;-70
2023/08/15 11:19:37;;;;;;;7.57;5.25;;;31.10;95.70;;;;;;5027336;28;20034;-70
2023/08/15 11:22:03;;;;;;;7.90;4.82;;;31.10;95.40;;;;;;5027412;28;20438;-70
2023/08/15 11:24:32;;;;;;;6.93;4.93;;;31.10;95.70;;;;;;5027413;28;20502;-70
2023/08/15 11:26:57;;;;;;;7.18;5.50;;;31.40;96.10;;;;;;5027207;28;20104;-70
2023/08/15 11:29:23;;;;;;;7.60;4.95;;;31.50;95.90;;;;;;5027106;28;20101;-70
2023/08/15 11:31:52;;;;;;;8.30;5.35;;;31.70;95.90;;;;;;5027389;28;20048;-70
2023/08/15 11:34:18;;;;;;;9.93;5.40;;;31.70;95.20;;;;;;5027310;28;20079;-70
2023/08/15 11:36:45;;;;;;;7.15;5.28;;;31.80;95.20;;;;;;5027683;28;20463;-70
2023/08/15 11:39:12;;;;;;;5.93;5.03;;;31.70;95.00;;;;;;5027423;28;20068;-70
2023/08/15 11:41:38;;;;;;;8.45;4.78;;;32.00;95.30;;;;;;5027325;28;20748;-70
2023/08/15 11:44:04;;;;;;;9.25;4.80;;;32.00;95.40;;;;;;5027392;28;20026;-70
2023/08/15 11:46:37;;;;;;;7.68;4.38;;;32.30;94.90;;;;;;5027531;28;20033;-70
2023/08/15 11:49:03;;;;;;;6.95;4.70;;;32.20;93.90;;;;;;5027229;28;20025;-70
2023/08/15 11:51:29;;;;;;;7.35;4.35;;;32.00;94.50;;;;;;5027454;28;20096;-70
2023/08/15 11:53:56;;;;;;;5.38;4.43;;;32.00;94.30;;;;;;5026792;28;20533;-70
2023/08/15 11:56:22;;;;;;;7.93;5.00;;;32.10;94.90;;;;;;5027363;28;20446;-70
2023/08/15 11:58:48;;;;;;;9.40;5.30;;;32.00;94.00;;;;;;5027199;28;20057;-70
2023/08/15 12:01:14;;;;;;;8.50;5.15;;;32.20;95.30;;;;;;5027322;28;20065;-70
2023/08/15 12:03:40;;;;;;;10.82;4.75;;;32.00;94.30;;;;;;5027520;28;20030;-70
2023/08/15 12:06:10;;;;;;;7.85;4.60;;;32.20;93.80;;;;;;5027100;28;20136;-70
2023/08/15 12:08:38;;;;;;;7.35;4.90;;;32.30;94.60;;;;;;5026818;28;20056;-70
2023/08/15 12:11:06;;;;;;;5.78;4.63;;;32.50;93.70;;;;;;5026939;28;20053;-70
2023/08/15 12:13:36;;;;;;;7.60;5.18;;;32.70;93.50;;;;;;5027026;28;20030;-70
2023/08/15 12:16:03;;;;;;;7.75;5.00;;;32.60;93.40;;;;;;5027321;28;20112;-70
2023/08/15 12:18:30;;;;;;;9.25;4.97;;;32.80;93.20;;;;;;5027122;28;20086;-70
2023/08/15 12:20:55;;;;;;;6.78;4.70;;;32.80;93.70;;;;;;5027094;28;20037;-70
2023/08/15 12:23:21;;;;;;;6.90;5.00;;;32.90;93.20;;;;;;5027280;28;20541;-70
2023/08/15 12:25:47;;;;;;;6.82;4.13;;;32.70;93.40;;;;;;5030834;28;20431;-70
2023/08/15 12:28:13;;;;;;;9.18;5.05;;;32.90;93.50;;;;;;5030780;28;20155;-70
2023/08/15 12:30:39;;;;;;;6.97;5.05;;;33.20;93.40;;;;;;5031183;28;20203;-70
2023/08/15 12:33:07;;;;;;;8.55;4.50;;;33.10;93.20;;;;;;5030432;28;20075;-70
2023/08/15 12:35:33;;;;;;;6.72;4.70;;;32.90;93.10;;;;;;5030462;28;20033;-70
2023/08/15 12:37:59;;;;;;;5.30;4.60;;;32.80;93.00;;;;;;5030573;28;20521;-70
2023/08/15 12:40:26;;;;;;;7.60;4.75;;;32.70;93.00;;;;;;5030707;28;20037;-70
2023/08/15 12:42:52;;;;;;;8.32;4.82;;;32.90;93.20;;;;;;5030535;28;20130;-70